Time;durP1;ratioP1;P1;durP2;ratioP2;P2;SDS_P1;SDS_P2;PMS_P1;PMS_P2;Temp;Humidity;BMP_temperature;BMP_pressure;BME280_temperature;BME280_humidity;BME280_pressure;Samples;Min_cycle;Max_cycle;Signal;HPM_P1;HPM_P2
2023/05/04 00:01:10;;;;;;;7.67;3.90;;;;;;;;;;4985391;28;20516;-87
2023/05/04 00:03:39;;;;;;;7.20;4.67;;;;;;;;;;4993010;28;20537;-86
2023/05/04 00:06:05;;;;;;;5.83;4.20;;;;;;;;;;4994431;28;20437;-86
2023/05/04 00:08:31;;;;;;;5.53;4.40;;;;;;;;;;4987103;28;20481;-86
2023/05/04 00:10:57;;;;;;;6.87;4.70;;;;;;;;;;4975285;28;20426;-86
2023/05/04 00:13:23;;;;;;;6.20;4.20;;;;;;;;;;4991722;28;20442;-86
2023/05/04 00:15:49;;;;;;;5.90;3.90;;;;;;;;;;4992249;28;20418;-87
2023/05/04 00:18:15;;;;;;;8.23;4.47;;;;;;;;;;4985862;28;20443;-85
2023/05/04 00:20:41;;;;;;;5.23;3.77;;;;;;;;;;4990515;28;20438;-86
2023/05/04 00:23:07;;;;;;;5.90;4.13;;;;;;;;;;4997855;28;20525;-86
2023/05/04 00:25:33;;;;;;;6.30;4.73;;;;;;;;;;5002157;28;20888;-86
2023/05/04 00:27:59;;;;;;;5.30;4.30;;;;;;;;;;4997553;28;20964;-87
2023/05/04 00:30:25;;;;;;;6.67;4.43;;;;;;;;;;4990283;28;20438;-87
2023/05/04 00:32:51;;;;;;;5.83;4.40;;;;;;;;;;4988980;28;20933;-87
2023/05/04 00:35:17;;;;;;;7.07;4.57;;;;;;;;;;4973713;28;20437;-86
2023/05/04 00:37:45;;;;;;;9.00;4.63;;;;;;;;;;4989788;28;20885;-87
2023/05/04 00:40:11;;;;;;;5.77;4.20;;;;;;;;;;4980063;28;20501;-87
2023/05/04 00:42:37;;;;;;;6.73;4.30;;;;;;;;;;5004358;28;20958;-87
2023/05/04 00:45:03;;;;;;;7.43;3.87;;;;;;;;;;4998465;28;20481;-86
2023/05/04 00:47:30;;;;;;;6.60;5.07;;;;;;;;;;4992848;28;20811;-86
2023/05/04 00:49:55;;;;;;;6.60;4.80;;;;;;;;;;5002345;28;20421;-86
2023/05/04 00:52:22;;;;;;;5.67;3.57;;;;;;;;;;4987035;28;20791;-86
2023/05/04 00:54:48;;;;;;;8.23;3.73;;;;;;;;;;4998782;28;20429;-87
2023/05/04 00:57:15;;;;;;;6.07;4.30;;;;;;;;;;4991105;28;20541;-86
2023/05/04 00:59:40;;;;;;;4.97;4.20;;;;;;;;;;4997816;28;20442;-86
2023/05/04 01:02:06;;;;;;;5.20;4.33;;;;;;;;;;4994420;28;20806;-86
2023/05/04 01:04:32;;;;;;;6.30;4.60;;;;;;;;;;4990260;28;20444;-86
2023/05/04 01:07:05;;;;;;;6.20;4.37;;;;;;;;;;4996565;28;20463;-86
2023/05/04 01:09:47;;;;;;;5.70;4.47;;;;;;;;;;5004519;28;20457;-86
2023/05/04 01:12:22;;;;;;;9.80;4.03;;;;;;;;;;4993454;28;20853;-86
2023/05/04 01:14:48;;;;;;;6.10;3.83;;;;;;;;;;5002724;28;20417;-85
2023/05/04 01:17:14;;;;;;;11.30;4.80;;;;;;;;;;4978103;28;20933;-86
2023/05/04 01:19:40;;;;;;;10.57;4.10;;;;;;;;;;4994501;28;20433;-86
2023/05/04 01:22:06;;;;;;;6.70;4.73;;;;;;;;;;5000316;28;20434;-86
2023/05/04 01:24:32;;;;;;;7.33;4.90;;;;;;;;;;4999669;28;20458;-86
2023/05/04 01:27:05;;;;;;;5.43;4.30;;;;;;;;;;4990902;28;20433;-87
2023/05/04 01:29:34;;;;;;;5.60;4.47;;;;;;;;;;4991770;28;20461;-87
2023/05/04 01:32:00;;;;;;;5.00;3.63;;;;;;;;;;4980606;28;20595;-86
2023/05/04 01:34:26;;;;;;;6.43;5.23;;;;;;;;;;4992124;28;20465;-86
2023/05/04 01:36:52;;;;;;;5.13;3.47;;;;;;;;;;4992499;28;20420;-86
2023/05/04 01:39:18;;;;;;;8.10;5.20;;;;;;;;;;4992413;28;20430;-86
2023/05/04 01:41:44;;;;;;;7.67;4.63;;;;;;;;;;4992185;28;20473;-86
2023/05/04 01:44:10;;;;;;;6.10;4.40;;;;;;;;;;4989014;28;20439;-86
2023/05/04 01:46:36;;;;;;;5.53;4.60;;;;;;;;;;4992503;28;20967;-85
2023/05/04 01:49:02;;;;;;;8.27;4.93;;;;;;;;;;4992683;28;20457;-86
2023/05/04 01:51:28;;;;;;;8.27;4.90;;;;;;;;;;4991537;28;20469;-86
2023/05/04 01:53:54;;;;;;;6.03;4.53;;;;;;;;;;4991386;28;20453;-86
2023/05/04 01:56:20;;;;;;;5.63;4.70;;;;;;;;;;4992229;28;20468;-86
2023/05/04 01:58:46;;;;;;;8.03;5.40;;;;;;;;;;4991970;28;20433;-86
2023/05/04 02:01:12;;;;;;;5.37;4.47;;;;;;;;;;4991720;28;20473;-86
2023/05/04 02:03:38;;;;;;;5.87;4.70;;;;;;;;;;4992480;28;20406;-85
2023/05/04 02:06:05;;;;;;;7.27;5.20;;;;;;;;;;4991289;28;20438;-86
2023/05/04 02:08:31;;;;;;;5.17;4.30;;;;;;;;;;4985173;28;20465;-86
2023/05/04 02:10:56;;;;;;;7.67;5.30;;;;;;;;;;4991525;28;20448;-85
2023/05/04 02:13:22;;;;;;;7.80;5.13;;;;;;;;;;4991477;28;20426;-87
2023/05/04 02:15:48;;;;;;;7.00;5.13;;;;;;;;;;4993069;28;20454;-87
2023/05/04 02:18:14;;;;;;;8.40;5.20;;;;;;;;;;4987083;28;20445;-87
2023/05/04 02:20:40;;;;;;;7.00;5.33;;;;;;;;;;4992430;28;20454;-86
2023/05/04 02:23:06;;;;;;;7.00;6.27;;;;;;;;;;4981614;28;20433;-87
2023/05/04 02:25:32;;;;;;;9.40;6.50;;;;;;;;;;4991629;28;20899;-86
2023/05/04 02:27:58;;;;;;;7.87;6.07;;;;;;;;;;4985848;28;20512;-86
2023/05/04 02:30:24;;;;;;;7.13;4.70;;;;;;;;;;4991782;28;20441;-86
2023/05/04 02:32:50;;;;;;;8.67;5.47;;;;;;;;;;4987236;28;20435;-86
2023/05/04 02:35:16;;;;;;;8.00;6.13;;;;;;;;;;4975323;28;20852;-87
2023/05/04 02:37:42;;;;;;;7.90;6.23;;;;;;;;;;4989759;28;20453;-87
2023/05/04 02:40:08;;;;;;;8.43;5.60;;;;;;;;;;4991147;28;20467;-86
2023/05/04 02:42:34;;;;;;;12.03;5.33;;;;;;;;;;4991302;28;20468;-87
2023/05/04 02:45:00;;;;;;;6.90;5.63;;;;;;;;;;4991165;28;20410;-86
2023/05/04 02:47:26;;;;;;;8.57;6.00;;;;;;;;;;4976282;28;20784;-86
2023/05/04 02:49:52;;;;;;;7.97;5.30;;;;;;;;;;4984692;28;20481;-87
2023/05/04 02:52:18;;;;;;;7.40;5.87;;;;;;;;;;4989841;28;20422;-87
2023/05/04 02:54:45;;;;;;;8.90;6.67;;;;;;;;;;4991151;28;20460;-87
2023/05/04 02:57:11;;;;;;;10.90;6.43;;;;;;;;;;4991580;28;20496;-87
2023/05/04 02:59:37;;;;;;;7.07;5.90;;;;;;;;;;4984486;28;20426;-88
2023/05/04 03:02:03;;;;;;;12.10;6.80;;;;;;;;;;4992543;28;20425;-88
2023/05/04 03:04:29;;;;;;;10.03;6.23;;;;;;;;;;4983793;28;20419;-87
2023/05/04 03:06:55;;;;;;;7.37;6.00;;;;;;;;;;4975105;28;20438;-88
2023/05/04 03:09:21;;;;;;;8.93;7.27;;;;;;;;;;4997844;28;20877;-87
2023/05/04 03:11:47;;;;;;;9.20;6.67;;;;;;;;;;4996676;28;20464;-87
2023/05/04 03:14:13;;;;;;;7.50;6.57;;;;;;;;;;4991559;28;20914;-87
2023/05/04 03:16:39;;;;;;;9.23;6.40;;;;;;;;;;4987334;28;20418;-87
2023/05/04 03:19:05;;;;;;;10.23;8.60;;;;;;;;;;4992349;28;20466;-87
2023/05/04 03:21:31;;;;;;;10.70;7.90;;;;;;;;;;4992485;28;20468;-86
2023/05/04 03:23:58;;;;;;;9.10;7.53;;;;;;;;;;4987061;28;21296;-87
2023/05/04 03:26:24;;;;;;;11.30;6.57;;;;;;;;;;4991313;28;20448;-87
2023/05/04 03:28:50;;;;;;;9.83;8.27;;;;;;;;;;4991411;28;20454;-87
2023/05/04 03:31:16;;;;;;;9.77;7.43;;;;;;;;;;4984504;28;20564;-87
2023/05/04 03:33:42;;;;;;;10.00;7.00;;;;;;;;;;4990303;28;20433;-87
2023/05/04 03:36:10;;;;;;;10.17;7.10;;;;;;;;;;4991660;28;20829;-87
2023/05/04 03:38:36;;;;;;;10.23;7.20;;;;;;;;;;4986745;28;20452;-87
2023/05/04 03:41:02;;;;;;;7.87;6.47;;;;;;;;;;4988959;28;20971;-87
2023/05/04 03:43:28;;;;;;;11.70;7.13;;;;;;;;;;4993438;28;20808;-87
2023/05/04 03:45:54;;;;;;;10.47;7.33;;;;;;;;;;4992891;28;20433;-87
2023/05/04 03:48:20;;;;;;;11.13;7.53;;;;;;;;;;4990073;28;20453;-87
2023/05/04 03:50:46;;;;;;;9.50;6.73;;;;;;;;;;4989476;28;20438;-85
2023/05/04 03:53:12;;;;;;;9.10;8.00;;;;;;;;;;4980772;28;20783;-85
2023/05/04 03:55:38;;;;;;;11.37;7.43;;;;;;;;;;4981993;28;20445;-85
2023/05/04 03:58:04;;;;;;;12.57;9.63;;;;;;;;;;4991231;28;20992;-85
2023/05/04 04:00:30;;;;;;;11.87;8.37;;;;;;;;;;4990152;28;20437;-85
2023/05/04 04:02:56;;;;;;;8.73;7.80;;;;;;;;;;4981949;28;20492;-85
2023/05/04 04:05:22;;;;;;;13.30;8.33;;;;;;;;;;4990260;28;20512;-85
2023/05/04 04:07:48;;;;;;;12.40;7.43;;;;;;;;;;4990390;28;20429;-85
2023/05/04 04:10:14;;;;;;;10.30;8.10;;;;;;;;;;4998918;28;20422;-85
2023/05/04 04:12:40;;;;;;;12.23;7.50;;;;;;;;;;4989785;28;20438;-86
2023/05/04 04:15:06;;;;;;;13.70;9.10;;;;;;;;;;4988978;28;20449;-85
2023/05/04 04:17:32;;;;;;;14.47;8.53;;;;;;;;;;4991365;28;20454;-86
2023/05/04 04:19:58;;;;;;;12.00;9.50;;;;;;;;;;4989536;28;20437;-86
2023/05/04 04:22:25;;;;;;;12.70;9.37;;;;;;;;;;4990650;28;20422;-87
2023/05/04 04:24:51;;;;;;;10.23;8.00;;;;;;;;;;4991174;28;20434;-85
2023/05/04 04:27:17;;;;;;;8.70;6.63;;;;;;;;;;4990023;28;20449;-86
2023/05/04 04:29:43;;;;;;;12.93;8.43;;;;;;;;;;4984965;28;20469;-87
2023/05/04 04:32:09;;;;;;;10.97;8.13;;;;;;;;;;4988097;28;20429;-89
2023/05/04 04:34:35;;;;;;;11.27;8.77;;;;;;;;;;4980852;28;20439;-85
2023/05/04 04:37:01;;;;;;;13.80;8.43;;;;;;;;;;4987517;28;20952;-85
2023/05/04 04:39:27;;;;;;;11.60;9.30;;;;;;;;;;4988129;28;20438;-85
2023/05/04 04:41:53;;;;;;;15.83;7.17;;;;;;;;;;4990131;28;20486;-83
2023/05/04 04:44:19;;;;;;;10.70;8.40;;;;;;;;;;4990840;28;20422;-85
2023/05/04 04:46:46;;;;;;;13.33;9.67;;;;;;;;;;4986503;28;20434;-85
2023/05/04 04:49:12;;;;;;;12.80;8.30;;;;;;;;;;4986475;28;20536;-85
2023/05/04 04:51:40;;;;;;;14.17;8.93;;;;;;;;;;4988674;28;20441;-85
2023/05/04 04:54:06;;;;;;;13.90;9.30;;;;;;;;;;4993412;28;20433;-84
2023/05/04 04:56:32;;;;;;;13.20;9.30;;;;;;;;;;4990153;28;20434;-84
2023/05/04 04:58:58;;;;;;;9.77;8.53;;;;;;;;;;4989386;28;20454;-84
2023/05/04 05:01:25;;;;;;;11.27;9.00;;;;;;;;;;4988915;28;20438;-85
2023/05/04 05:03:51;;;;;;;10.83;8.57;;;;;;;;;;4989158;28;20785;-85
2023/05/04 05:06:17;;;;;;;12.03;9.53;;;;;;;;;;4982153;28;20452;-86
2023/05/04 05:08:43;;;;;;;13.53;8.57;;;;;;;;;;4988500;28;20461;-84
2023/05/04 05:11:09;;;;;;;9.80;8.63;;;;;;;;;;4989882;28;20516;-86
2023/05/04 05:13:35;;;;;;;12.83;8.10;;;;;;;;;;4988800;28;20850;-86
2023/05/04 05:16:01;;;;;;;14.90;9.20;;;;;;;;;;4987133;28;20426;-87
2023/05/04 05:18:28;;;;;;;18.37;10.27;;;;;;;;;;4985753;28;20453;-86
2023/05/04 05:20:54;;;;;;;12.23;8.67;;;;;;;;;;4985314;28;20427;-86
2023/05/04 05:23:20;;;;;;;14.13;8.77;;;;;;;;;;4994767;28;20472;-87
2023/05/04 05:25:46;;;;;;;11.10;8.63;;;;;;;;;;4987419;28;21036;-86
2023/05/04 05:28:13;;;;;;;11.17;9.80;;;;;;;;;;4990478;28;20461;-86
2023/05/04 05:30:39;;;;;;;12.43;8.80;;;;;;;;;;4977328;28;20450;-86
2023/05/04 05:33:05;;;;;;;13.30;9.43;;;;;;;;;;4990733;28;20465;-85
2023/05/04 05:35:31;;;;;;;10.50;8.40;;;;;;;;;;4983784;28;20422;-86
2023/05/04 05:37:57;;;;;;;12.67;9.23;;;;;;;;;;4991409;28;20814;-86
2023/05/04 05:40:23;;;;;;;13.37;10.00;;;;;;;;;;4990899;28;20430;-86
2023/05/04 05:42:49;;;;;;;14.27;10.10;;;;;;;;;;4990347;28;20445;-86
2023/05/04 05:45:15;;;;;;;12.37;9.00;;;;;;;;;;4992956;28;20440;-87
2023/05/04 05:47:41;;;;;;;17.20;9.43;;;;;;;;;;4994983;28;20414;-86
2023/05/04 05:50:07;;;;;;;11.10;8.97;;;;;;;;;;4991494;28;20446;-86
2023/05/04 05:52:34;;;;;;;12.17;10.23;;;;;;;;;;4979331;28;20928;-86
2023/05/04 05:55:00;;;;;;;12.00;9.30;;;;;;;;;;4992648;28;20422;-86
2023/05/04 05:57:26;;;;;;;10.73;8.80;;;;;;;;;;4996463;28;20835;-86
2023/05/04 05:59:52;;;;;;;18.20;11.00;;;;;;;;;;4982289;28;20422;-86
2023/05/04 06:02:18;;;;;;;13.93;10.13;;;;;;;;;;4992565;28;20438;-87
2023/05/04 06:04:44;;;;;;;13.23;10.40;;;;;;;;;;4993544;28;20481;-88
2023/05/04 06:07:12;;;;;;;15.17;10.63;;;;;;;;;;4992850;28;20495;-86
2023/05/04 06:09:38;;;;;;;14.03;9.23;;;;;;;;;;4990524;28;20503;-86
2023/05/04 06:12:05;;;;;;;19.50;9.10;;;;;;;;;;4989382;28;20505;-86
2023/05/04 06:14:32;;;;;;;19.87;10.70;;;;;;;;;;4991618;28;20962;-86
2023/05/04 06:16:58;;;;;;;14.63;10.00;;;;;;;;;;4992408;28;20410;-86
2023/05/04 06:19:24;;;;;;;13.17;10.10;;;;;;;;;;4991652;28;20496;-86
2023/05/04 06:21:50;;;;;;;13.73;10.07;;;;;;;;;;4993577;28;20422;-86
2023/05/04 06:24:16;;;;;;;12.60;9.97;;;;;;;;;;4992375;28;20410;-86
2023/05/04 06:26:42;;;;;;;13.53;9.53;;;;;;;;;;4990582;28;20442;-86
2023/05/04 06:29:08;;;;;;;12.23;8.80;;;;;;;;;;4975735;28;20561;-86
2023/05/04 06:31:34;;;;;;;12.10;10.60;;;;;;;;;;4994267;28;20415;-86
2023/05/04 06:34:00;;;;;;;13.73;10.33;;;;;;;;;;4992501;28;20429;-86
2023/05/04 06:36:26;;;;;;;12.53;9.00;;;;;;;;;;4992725;28;20414;-86
2023/05/04 06:38:54;;;;;;;18.00;8.97;;;;;;;;;;4975726;28;20472;-85
2023/05/04 06:41:20;;;;;;;13.00;9.83;;;;;;;;;;4990835;28;20437;-86
2023/05/04 06:43:46;;;;;;;12.90;9.33;;;;;;;;;;4991357;28;20498;-86
2023/05/04 06:46:12;;;;;;;13.80;9.40;;;;;;;;;;4999025;28;20516;-85
2023/05/04 06:48:38;;;;;;;12.90;9.60;;;;;;;;;;4990941;28;20480;-86
2023/05/04 06:51:04;;;;;;;9.30;7.77;;;;;;;;;;4992163;28;20437;-86
2023/05/04 06:53:30;;;;;;;13.93;9.97;;;;;;;;;;4991627;28;20473;-86
2023/05/04 06:55:56;;;;;;;13.77;8.97;;;;;;;;;;4985739;28;20426;-86
2023/05/04 06:58:22;;;;;;;12.10;9.40;;;;;;;;;;4988948;28;20998;-88
2023/05/04 07:00:48;;;;;;;13.17;9.30;;;;;;;;;;4981174;28;20443;-87
2023/05/04 07:03:15;;;;;;;9.30;8.00;;;;;;;;;;4993266;28;20931;-87
2023/05/04 07:05:43;;;;;;;14.47;9.50;;;;;;;;;;4992633;28;20944;-87
2023/05/04 07:08:10;;;;;;;13.30;10.13;;;;;;;;;;4992433;28;20466;-87
2023/05/04 07:10:36;;;;;;;17.07;10.50;;;;;;;;;;4992726;28;20437;-86
2023/05/04 07:13:02;;;;;;;11.87;8.53;;;;;;;;;;4993749;28;20437;-87
2023/05/04 07:15:28;;;;;;;10.40;9.20;;;;;;;;;;4993131;28;20474;-86
2023/05/04 07:17:54;;;;;;;11.67;7.73;;;;;;;;;;4993810;28;20434;-89
2023/05/04 07:20:20;;;;;;;11.50;8.63;;;;;;;;;;4993528;28;20786;-89
2023/05/04 07:22:47;;;;;;;12.83;9.20;;;;;;;;;;4978156;28;20425;-88
2023/05/04 07:25:13;;;;;;;15.13;8.70;;;;;;;;;;4993132;28;20486;-87
2023/05/04 07:27:40;;;;;;;12.03;9.57;;;;;;;;;;4992466;28;20446;-87
2023/05/04 07:30:07;;;;;;;11.00;9.87;;;;;;;;;;4979375;28;20453;-88
2023/05/04 07:32:33;;;;;;;9.80;8.27;;;;;;;;;;4988873;28;20434;-88
2023/05/04 07:34:58;;;;;;;10.67;8.60;;;;;;;;;;4989447;28;20422;-89
2023/05/04 07:37:25;;;;;;;10.50;8.20;;;;;;;;;;4991171;28;20509;-88
2023/05/04 07:39:51;;;;;;;13.27;9.07;;;;;;;;;;4990315;28;20438;-88
2023/05/04 07:42:17;;;;;;;8.90;7.73;;;;;;;;;;4993633;28;20449;-89
2023/05/04 07:44:43;;;;;;;11.73;10.47;;;;;;;;;;4993931;28;20599;-87
2023/05/04 07:47:09;;;;;;;10.80;8.83;;;;;;;;;;4992087;28;20418;-89
2023/05/04 07:49:35;;;;;;;11.13;8.57;;;;;;;;;;4990578;28;20464;-88
2023/05/04 07:52:01;;;;;;;14.53;9.40;;;;;;;;;;4994707;28;20442;-88
2023/05/04 07:54:27;;;;;;;11.50;9.40;;;;;;;;;;4991276;28;20461;-88
2023/05/04 07:56:53;;;;;;;12.77;9.47;;;;;;;;;;4989475;28;20537;-85
2023/05/04 07:59:20;;;;;;;10.40;8.53;;;;;;;;;;4989052;28;20544;-85
2023/05/04 08:01:46;;;;;;;10.93;8.80;;;;;;;;;;4990015;28;20448;-85
2023/05/04 08:04:12;;;;;;;10.80;8.37;;;;;;;;;;4986879;28;20446;-87
2023/05/04 08:06:38;;;;;;;10.67;8.10;;;;;;;;;;4989190;28;20453;-88
2023/05/04 08:09:06;;;;;;;9.43;8.40;;;;;;;;;;4993446;28;20479;-89
2023/05/04 08:11:33;;;;;;;9.97;7.20;;;;;;;;;;5000608;28;21292;-89
2023/05/04 08:13:59;;;;;;;10.70;8.50;;;;;;;;;;4987136;28;20442;-86
2023/05/04 08:16:26;;;;;;;11.23;7.37;;;;;;;;;;4991728;28;20461;-88
2023/05/04 08:18:52;;;;;;;13.73;10.13;;;;;;;;;;4991609;28;20847;-86
2023/05/04 08:21:18;;;;;;;13.17;7.80;;;;;;;;;;4991050;28;20446;-86
2023/05/04 08:23:44;;;;;;;9.30;8.40;;;;;;;;;;4989293;28;20426;-89
2023/05/04 08:26:10;;;;;;;10.23;7.27;;;;;;;;;;4988227;28;20523;-87
2023/05/04 08:28:36;;;;;;;9.80;7.60;;;;;;;;;;4982064;28;20465;-88
2023/05/04 08:31:02;;;;;;;9.70;7.13;;;;;;;;;;4986194;28;20442;-85
2023/05/04 08:33:29;;;;;;;8.23;6.50;;;;;;;;;;4989676;28;20433;-85
2023/05/04 08:35:55;;;;;;;8.63;5.93;;;;;;;;;;4989540;28;20433;-87
2023/05/04 08:38:21;;;;;;;6.90;6.17;;;;;;;;;;4989634;28;20845;-87
2023/05/04 08:40:47;;;;;;;10.77;6.63;;;;;;;;;;4989245;28;20439;-88
2023/05/04 08:43:13;;;;;;;9.73;7.40;;;;;;;;;;4989002;28;20439;-87
2023/05/04 08:45:39;;;;;;;13.53;7.10;;;;;;;;;;4998083;28;20428;-87
2023/05/04 08:48:06;;;;;;;7.43;6.40;;;;;;;;;;4980427;28;20440;-87
2023/05/04 08:50:32;;;;;;;9.47;6.57;;;;;;;;;;4989534;28;20426;-88
2023/05/04 08:52:59;;;;;;;6.13;5.53;;;;;;;;;;4990201;28;20433;-89
2023/05/04 08:55:25;;;;;;;7.87;5.63;;;;;;;;;;4986181;28;20454;-89
2023/05/04 08:57:52;;;;;;;5.73;5.13;;;;;;;;;;4991740;28;20438;-93
2023/05/04 09:00:18;;;;;;;7.67;5.30;;;;;;;;;;4990194;28;20484;-93
2023/05/04 09:02:45;;;;;;;6.30;5.17;;;;;;;;;;4991460;28;20488;-91
2023/05/04 09:05:11;;;;;;;6.23;4.83;;;;;;;;;;4985813;28;20430;-92
2023/05/04 09:07:37;;;;;;;5.87;4.50;;;;;;;;;;4991495;28;21177;-91
2023/05/04 09:10:03;;;;;;;6.43;5.20;;;;;;;;;;4992312;28;20493;-91
2023/05/04 09:12:30;;;;;;;8.80;5.10;;;;;;;;;;4990660;28;20914;-92
2023/05/04 09:14:57;;;;;;;7.70;6.23;;;;;;;;;;4979273;28;20439;-92
2023/05/04 09:17:28;;;;;;;5.00;4.10;;;;;;;;;;4996005;28;20440;-93
2023/05/04 09:20:00;;;;;;;6.77;4.80;;;;;;;;;;4992343;28;20427;-92
2023/05/04 09:22:26;;;;;;;8.60;6.03;;;;;;;;;;4994233;28;20441;-92
2023/05/04 09:24:52;;;;;;;5.07;4.47;;;;;;;;;;4982759;28;20458;-92
2023/05/04 09:27:18;;;;;;;6.13;5.13;;;;;;;;;;4997852;28;20959;-94
2023/05/04 09:29:52;;;;;;;5.43;4.93;;;;;;;;;;5000281;28;20468;-92
2023/05/04 09:32:18;;;;;;;6.53;4.67;;;;;;;;;;4995874;28;20428;-93
2023/05/04 09:34:53;;;;;;;6.07;5.37;;;;;;;;;;4975921;28;20435;-87
2023/05/04 09:37:22;;;;;;;7.60;6.20;;;;;;;;;;4991035;28;20524;-86
2023/05/04 09:39:55;;;;;;;6.37;5.70;;;;;;;;;;4981513;28;20441;-86
2023/05/04 09:42:22;;;;;;;4.93;4.20;;;;;;;;;;4981646;28;20508;-87
2023/05/04 09:44:58;;;;;;;6.67;6.07;;;;;;;;;;4996348;28;20457;-86
2023/05/04 09:47:30;;;;;;;6.47;4.93;;;;;;;;;;4986428;28;20409;-86
2023/05/04 09:49:56;;;;;;;8.10;6.40;;;;;;;;;;5002042;28;20471;-86
2023/05/04 09:52:22;;;;;;;5.30;4.80;;;;;;;;;;4994354;28;20414;-86
2023/05/04 09:54:48;;;;;;;6.60;6.00;;;;;;;;;;4982576;28;20445;-86
2023/05/04 09:57:14;;;;;;;6.53;5.90;;;;;;;;;;5000087;28;20433;-87
2023/05/04 09:59:42;;;;;;;6.10;5.50;;;;;;;;;;5007345;28;20446;-86
2023/05/04 10:02:08;;;;;;;5.30;4.80;;;;;;;;;;4992613;28;20571;-86
2023/05/04 10:04:35;;;;;;;5.97;5.37;;;;;;;;;;4988977;28;20449;-86
2023/05/04 10:07:06;;;;;;;6.20;5.60;;;;;;;;;;4991036;28;20449;-86
2023/05/04 10:09:32;;;;;;;6.07;5.17;;;;;;;;;;4986551;28;20537;-87
2023/05/04 10:11:59;;;;;;;7.23;5.50;;;;;;;;;;4984168;28;20777;-87
2023/05/04 10:14:25;;;;;;;6.30;5.70;;;;;;;;;;4991000;28;20459;-87
2023/05/04 10:16:53;;;;;;;5.87;5.27;;;;;;;;;;4994496;28;20445;-87
2023/05/04 10:19:26;;;;;;;6.30;5.00;;;;;;;;;;4972211;28;20423;-89
2023/05/04 10:22:00;;;;;;;6.27;5.20;;;;;;;;;;4962165;28;20413;-87
2023/05/04 10:24:37;;;;;;;6.10;5.40;;;;;;;;;;4992141;28;20524;-89
2023/05/04 10:27:09;;;;;;;6.27;5.57;;;;;;;;;;5001730;28;20433;-87
2023/05/04 10:29:35;;;;;;;7.30;4.97;;;;;;;;;;4992094;28;20458;-88
2023/05/04 10:32:01;;;;;;;5.80;4.47;;;;;;;;;;4992130;28;20442;-87
2023/05/04 10:34:31;;;;;;;5.80;4.47;;;;;;;;;;4987127;28;20419;-87
2023/05/04 10:36:57;;;;;;;5.83;5.23;;;;;;;;;;4985604;28;20792;-88
2023/05/04 10:39:24;;;;;;;7.93;3.73;;;;;;;;;;5015592;28;20460;-86
2023/05/04 10:42:02;;;;;;;6.20;4.70;;;;;;;;;;4994338;28;20415;-87
2023/05/04 10:44:29;;;;;;;6.30;4.50;;;;;;;;;;4998480;28;20433;-88
2023/05/04 10:46:59;;;;;;;5.30;4.80;;;;;;;;;;5002432;28;21109;-87
2023/05/04 10:49:25;;;;;;;7.63;5.13;;;;;;;;;;4994426;28;20468;-85
2023/05/04 10:52:03;;;;;;;5.50;4.47;;;;;;;;;;4996979;28;20458;-88
2023/05/04 10:54:29;;;;;;;5.33;4.80;;;;;;;;;;4995394;28;20936;-87
2023/05/04 10:57:02;;;;;;;5.30;4.47;;;;;;;;;;4992353;28;21179;-88
2023/05/04 10:59:28;;;;;;;9.70;4.60;;;;;;;;;;4994797;28;20484;-87
2023/05/04 11:01:54;;;;;;;5.53;4.40;;;;;;;;;;4994927;28;20442;-86
2023/05/04 11:04:21;;;;;;;5.30;4.80;;;;;;;;;;4991705;28;20433;-86
2023/05/04 11:07:07;;;;;;;7.23;4.93;;;;;;;;;;5000803;28;20453;-88
2023/05/04 11:09:41;;;;;;;5.70;5.03;;;;;;;;;;4987784;28;20462;-85
2023/05/04 11:12:09;;;;;;;4.50;4.10;;;;;;;;;;4986023;28;20431;-86
2023/05/04 11:14:41;;;;;;;7.50;4.77;;;;;;;;;;4991055;28;20438;-87
2023/05/04 11:17:07;;;;;;;5.90;4.90;;;;;;;;;;4987599;28;20449;-87
2023/05/04 11:19:33;;;;;;;5.93;4.70;;;;;;;;;;4991660;28;20418;-86
2023/05/04 11:22:02;;;;;;;5.70;4.30;;;;;;;;;;4988693;28;20831;-87
2023/05/04 11:24:41;;;;;;;7.10;4.87;;;;;;;;;;4990986;28;20489;-87
2023/05/04 11:27:08;;;;;;;4.47;3.90;;;;;;;;;;4992911;28;20504;-87
2023/05/04 11:29:33;;;;;;;5.13;4.30;;;;;;;;;;4992162;28;20454;-88
2023/05/04 11:32:00;;;;;;;6.70;4.57;;;;;;;;;;4977990;28;20790;-86
2023/05/04 11:34:26;;;;;;;5.13;4.63;;;;;;;;;;4984698;28;20461;-86
2023/05/04 11:36:53;;;;;;;4.83;4.20;;;;;;;;;;4972134;28;20427;-87
2023/05/04 11:39:19;;;;;;;5.23;4.57;;;;;;;;;;4980174;28;20937;-87
2023/05/04 11:41:45;;;;;;;5.43;4.47;;;;;;;;;;4990872;28;20766;-87
2023/05/04 11:44:12;;;;;;;5.27;4.03;;;;;;;;;;4990349;28;20461;-88
2023/05/04 11:46:38;;;;;;;5.27;4.77;;;;;;;;;;4977902;28;20430;-87
2023/05/04 11:49:04;;;;;;;4.60;4.20;;;;;;;;;;4989583;28;20458;-87
2023/05/04 11:51:30;;;;;;;5.47;4.37;;;;;;;;;;4991375;28;20801;-87
2023/05/04 11:53:58;;;;;;;4.53;4.13;;;;;;;;;;4977438;28;20452;-87
2023/05/04 11:56:24;;;;;;;5.07;3.70;;;;;;;;;;4989140;28;20944;-88
2023/05/04 11:58:50;;;;;;;5.30;4.00;;;;;;;;;;4998563;28;20425;-89
2023/05/04 12:01:16;;;;;;;5.23;4.37;;;;;;;;;;4991412;28;20187;-88
2023/05/04 12:03:42;;;;;;;4.97;4.47;;;;;;;;;;4980225;28;20422;-92
2023/05/04 12:06:09;;;;;;;4.30;3.67;;;;;;;;;;4995052;28;20792;-89
2023/05/04 12:08:40;;;;;;;4.30;3.90;;;;;;;;;;4985673;28;20476;-87
2023/05/04 12:11:09;;;;;;;5.03;4.37;;;;;;;;;;4987037;28;20435;-90
2023/05/04 12:13:35;;;;;;;4.87;4.00;;;;;;;;;;4987930;28;20434;-88
2023/05/04 12:16:14;;;;;;;8.37;5.07;;;;;;;;;;4990525;28;20421;-87
2023/05/04 12:18:41;;;;;;;5.70;4.33;;;;;;;;;;4980312;28;20469;-87
2023/05/04 12:21:07;;;;;;;5.20;4.57;;;;;;;;;;4994811;28;20506;-88
2023/05/04 12:23:35;;;;;;;5.40;4.90;;;;;;;;;;4987380;28;20470;-88
2023/05/04 12:26:01;;;;;;;5.20;4.07;;;;;;;;;;4990301;28;20988;-86
2023/05/04 12:28:28;;;;;;;4.60;4.20;;;;;;;;;;4990961;28;20469;-88
2023/05/04 12:30:54;;;;;;;4.80;4.40;;;;;;;;;;4990412;28;20438;-89
2023/05/04 12:33:20;;;;;;;5.17;4.67;;;;;;;;;;4990037;28;20434;-88
2023/05/04 12:35:46;;;;;;;4.20;3.80;;;;;;;;;;4991042;28;20849;-88
2023/05/04 12:38:12;;;;;;;6.30;5.37;;;;;;;;;;4992753;28;20477;-90
2023/05/04 12:40:38;;;;;;;4.37;3.97;;;;;;;;;;4990300;28;20445;-89
2023/05/04 12:43:04;;;;;;;4.50;3.93;;;;;;;;;;4988473;28;20437;-89
2023/05/04 12:45:30;;;;;;;4.80;4.40;;;;;;;;;;4990600;28;20433;-89
2023/05/04 12:47:56;;;;;;;5.73;4.50;;;;;;;;;;4987332;28;20963;-89
2023/05/04 12:50:22;;;;;;;5.13;4.63;;;;;;;;;;4982841;28;20425;-88
2023/05/04 12:52:48;;;;;;;5.33;3.93;;;;;;;;;;4995880;28;20417;-88
2023/05/04 12:55:14;;;;;;;6.33;4.80;;;;;;;;;;4994631;28;20454;-88
2023/05/04 12:57:42;;;;;;;5.77;4.03;;;;;;;;;;4996160;28;20497;-88
2023/05/04 13:00:09;;;;;;;4.60;4.20;;;;;;;;;;4995123;28;20430;-89
2023/05/04 13:02:35;;;;;;;4.80;4.10;;;;;;;;;;4985651;28;20984;-88
2023/05/04 13:05:00;;;;;;;5.47;4.97;;;;;;;;;;5005430;28;20428;-88
2023/05/04 13:07:26;;;;;;;5.00;4.33;;;;;;;;;;5012409;28;20470;-87
2023/05/04 13:09:53;;;;;;;4.60;4.20;;;;;;;;;;4997719;28;20465;-87
2023/05/04 13:12:18;;;;;;;4.00;3.50;;;;;;;;;;4999073;28;20529;-87
2023/05/04 13:14:45;;;;;;;5.27;4.10;;;;;;;;;;4997221;28;20482;-88
2023/05/04 13:17:11;;;;;;;5.77;5.17;;;;;;;;;;4996497;28;20953;-88
2023/05/04 13:19:37;;;;;;;4.67;3.93;;;;;;;;;;4979500;28;21218;-88
2023/05/04 13:22:03;;;;;;;6.00;5.40;;;;;;;;;;4997119;28;20912;-88
2023/05/04 13:24:30;;;;;;;5.73;4.83;;;;;;;;;;5006056;28;20421;-88
2023/05/04 13:26:57;;;;;;;5.73;4.70;;;;;;;;;;4994531;28;20441;-88
2023/05/04 13:29:23;;;;;;;5.40;4.90;;;;;;;;;;4997089;28;20553;-88
2023/05/04 13:31:49;;;;;;;4.80;4.40;;;;;;;;;;4993664;28;20446;-89
2023/05/04 13:34:15;;;;;;;4.30;3.83;;;;;;;;;;4993362;28;20451;-90
2023/05/04 13:36:41;;;;;;;5.07;4.63;;;;;;;;;;4993253;28;20433;-88
2023/05/04 13:39:07;;;;;;;5.27;4.10;;;;;;;;;;4977567;28;20422;-89
2023/05/04 13:41:33;;;;;;;7.80;4.20;;;;;;;;;;4993315;28;20425;-88
2023/05/04 13:43:59;;;;;;;6.23;5.60;;;;;;;;;;4994784;28;20428;-88
2023/05/04 13:46:25;;;;;;;6.10;5.50;;;;;;;;;;4993879;28;20266;-88
2023/05/04 13:48:51;;;;;;;13.47;5.60;;;;;;;;;;4994138;28;20501;-89
2023/05/04 13:51:17;;;;;;;6.80;6.00;;;;;;;;;;4994878;28;20445;-90
2023/05/04 13:53:43;;;;;;;5.00;4.47;;;;;;;;;;4993546;28;20444;-89
2023/05/04 13:56:09;;;;;;;5.70;5.20;;;;;;;;;;4996025;28;20481;-88
2023/05/04 13:58:35;;;;;;;5.60;5.00;;;;;;;;;;4999198;28;20521;-88
2023/05/04 14:01:02;;;;;;;5.37;4.37;;;;;;;;;;4994750;28;20448;-88
2023/05/04 14:03:30;;;;;;;6.23;3.93;;;;;;;;;;4993868;28;20821;-88
2023/05/04 14:05:57;;;;;;;5.23;4.30;;;;;;;;;;4995823;28;20480;-91
2023/05/04 14:08:24;;;;;;;4.90;4.20;;;;;;;;;;4977226;28;20761;-90
2023/05/04 14:10:50;;;;;;;4.57;4.00;;;;;;;;;;4952669;28;20538;-89
2023/05/04 14:13:16;;;;;;;5.00;4.50;;;;;;;;;;4990400;28;20430;-88
2023/05/04 14:15:42;;;;;;;7.50;5.17;;;;;;;;;;4940784;28;20437;-89
2023/05/04 14:18:08;;;;;;;7.03;5.93;;;;;;;;;;4944403;28;20905;-87
2023/05/04 14:20:34;;;;;;;5.77;5.27;;;;;;;;;;4959252;28;20442;-90
2023/05/04 14:23:00;;;;;;;5.83;5.00;;;;;;;;;;4958804;28;20429;-88
2023/05/04 14:25:26;;;;;;;9.60;4.77;;;;;;;;;;4958068;28;21068;-90
2023/05/04 14:27:52;;;;;;;4.90;4.43;;;;;;;;;;4991442;28;20440;-86
2023/05/04 14:30:18;;;;;;;7.20;4.17;;;;;;;;;;4958678;28;21112;-87
2023/05/04 14:32:44;;;;;;;5.83;4.93;;;;;;;;;;4958324;28;20450;-86
2023/05/04 14:35:11;;;;;;;5.10;4.60;;;;;;;;;;4985632;28;20556;-87